sensor_id;sensor_type;location;lat;lon;timestamp;P1;P2;P0
73414;PMS5003;61633;53.742;-2.990;2022-09-12T00:01:58;11;10;
73414;PMS5003;61633;53.742;-2.990;2022-09-12T00:08:03;13;11;
73414;PMS5003;61633;53.742;-2.990;2022-09-12T00:13:10;17;15;
73414;PMS5003;61633;53.742;-2.990;2022-09-12T00:20:47;15;10;
73414;PMS5003;61633;53.742;-2.990;2022-09-12T00:23:12;12;11;
73414;PMS5003;61633;53.742;-2.990;2022-09-12T00:26:42;12;12;
73414;PMS5003;61633;53.742;-2.990;2022-09-12T00:32:38;13;12;
73414;PMS5003;61633;53.742;-2.990;2022-09-12T00:35:02;11;11;
73414;PMS5003;61633;53.742;-2.990;2022-09-12T00:40:32;10;10;
73414;PMS5003;61633;53.742;-2.990;2022-09-12T00:43:31;9;9;
73414;PMS5003;61633;53.742;-2.990;2022-09-12T00:46:31;9;9;
73414;PMS5003;61633;53.742;-2.990;2022-09-12T00:54:25;11;10;
73414;PMS5003;61633;53.742;-2.990;2022-09-12T00:56:07;11;10;
73414;PMS5003;61633;53.742;-2.990;2022-09-12T00:59:04;10;10;
73414;PMS5003;61633;53.742;-2.990;2022-09-12T01:01:22;10;10;
73414;PMS5003;61633;53.742;-2.990;2022-09-12T01:06:31;11;11;
73414;PMS5003;61633;53.742;-2.990;2022-09-12T01:08:49;11;11;
73414;PMS5003;61633;53.742;-2.990;2022-09-12T01:17:25;3;3;
73414;PMS5003;61633;53.742;-2.990;2022-09-12T01:22:41;9;9;
73414;PMS5003;61633;53.742;-2.990;2022-09-12T01:27:03;9;9;
73414;PMS5003;61633;53.742;-2.990;2022-09-12T01:34:27;10;10;
73414;PMS5003;61633;53.742;-2.990;2022-09-12T01:37:01;10;10;
73414;PMS5003;61633;53.742;-2.990;2022-09-12T01:39:42;9;9;
73414;PMS5003;61633;53.742;-2.990;2022-09-12T01:42:51;8;8;
73414;PMS5003;61633;53.742;-2.990;2022-09-12T01:44:48;8;8;
73414;PMS5003;61633;53.742;-2.990;2022-09-12T01:47:28;9;9;
73414;PMS5003;61633;53.742;-2.990;2022-09-12T01:50:49;9;9;
73414;PMS5003;61633;53.742;-2.990;2022-09-12T01:55:35;8;8;
73414;PMS5003;61633;53.742;-2.990;2022-09-12T01:57:44;10;10;
73414;PMS5003;61633;53.742;-2.990;2022-09-12T02:00:32;12;12;
73414;PMS5003;61633;53.742;-2.990;2022-09-12T02:02:55;13;12;
73414;PMS5003;61633;53.742;-2.990;2022-09-12T02:07:41;10;9;
73414;PMS5003;61633;53.742;-2.990;2022-09-12T02:10:59;9;9;
73414;PMS5003;61633;53.742;-2.990;2022-09-12T02:13:33;9;9;
73414;PMS5003;61633;53.742;-2.990;2022-09-12T02:16:14;9;9;
73414;PMS5003;61633;53.742;-2.990;2022-09-12T02:18:10;10;10;
73414;PMS5003;61633;53.742;-2.990;2022-09-12T02:20:33;11;11;
73414;PMS5003;61633;53.742;-2.990;2022-09-12T02:23:16;11;11;
73414;PMS5003;61633;53.742;-2.990;2022-09-12T02:26:20;11;11;
73414;PMS5003;61633;53.742;-2.990;2022-09-12T02:28:35;11;11;
73414;PMS5003;61633;53.742;-2.990;2022-09-12T02:31:00;11;11;
73414;PMS5003;61633;53.742;-2.990;2022-09-12T02:33:05;8;8;
73414;PMS5003;61633;53.742;-2.990;2022-09-12T02:36:01;9;9;
73414;PMS5003;61633;53.742;-2.990;2022-09-12T02:41:41;9;9;
73414;PMS5003;61633;53.742;-2.990;2022-09-12T02:48:14;10;10;
73414;PMS5003;61633;53.742;-2.990;2022-09-12T02:52:34;11;10;
73414;PMS5003;61633;53.742;-2.990;2022-09-12T02:55:03;10;9;
73414;PMS5003;61633;53.742;-2.990;2022-09-12T02:57:40;7;7;
73414;PMS5003;61633;53.742;-2.990;2022-09-12T03:01:04;10;10;
73414;PMS5003;61633;53.742;-2.990;2022-09-12T03:03:03;10;10;
73414;PMS5003;61633;53.742;-2.990;2022-09-12T03:06:38;10;10;
73414;PMS5003;61633;53.742;-2.990;2022-09-12T03:11:29;10;10;
73414;PMS5003;61633;53.742;-2.990;2022-09-12T03:17:09;10;10;
73414;PMS5003;61633;53.742;-2.990;2022-09-12T03:24:14;10;7;
73414;PMS5003;61633;53.742;-2.990;2022-09-12T03:26:29;10;9;
73414;PMS5003;61633;53.742;-2.990;2022-09-12T03:29:46;8;8;
73414;PMS5003;61633;53.742;-2.990;2022-09-12T03:32:29;7;7;
73414;PMS5003;61633;53.742;-2.990;2022-09-12T03:35:28;1;1;
73414;PMS5003;61633;53.742;-2.990;2022-09-12T03:38:04;3;3;
73414;PMS5003;61633;53.742;-2.990;2022-09-12T03:40:47;3;3;
73414;PMS5003;61633;53.742;-2.990;2022-09-12T03:43:12;4;4;
73414;PMS5003;61633;53.742;-2.990;2022-09-12T03:46:13;4;4;
73414;PMS5003;61633;53.742;-2.990;2022-09-12T03:51:08;4;4;
73414;PMS5003;61633;53.742;-2.990;2022-09-12T03:56:46;3;3;
73414;PMS5003;61633;53.742;-2.990;2022-09-12T03:59:25;3;3;
73414;PMS5003;61633;53.742;-2.990;2022-09-12T04:02:25;4;3;
73414;PMS5003;61633;53.742;-2.990;2022-09-12T04:04:21;3;3;
73414;PMS5003;61633;53.742;-2.990;2022-09-12T04:06:48;4;4;
73414;PMS5003;61633;53.742;-2.990;2022-09-12T04:09:10;3;3;
73414;PMS5003;61633;53.742;-2.990;2022-09-12T04:21:29;5;5;
73414;PMS5003;61633;53.742;-2.990;2022-09-12T04:26:46;4;4;
73414;PMS5003;61633;53.742;-2.990;2022-09-12T04:29:59;5;3;
73414;PMS5003;61633;53.742;-2.990;2022-09-12T04:34:40;4;4;
73414;PMS5003;61633;53.742;-2.990;2022-09-12T04:39:56;4;4;
73414;PMS5003;61633;53.742;-2.990;2022-09-12T04:44:48;3;3;
73414;PMS5003;61633;53.742;-2.990;2022-09-12T04:47:19;3;3;
73414;PMS5003;61633;53.742;-2.990;2022-09-12T04:49:37;4;3;
73414;PMS5003;61633;53.742;-2.990;2022-09-12T04:51:57;3;2;
73414;PMS5003;61633;53.742;-2.990;2022-09-12T04:54:37;6;5;
73414;PMS5003;61633;53.742;-2.990;2022-09-12T04:57:06;1;1;
73414;PMS5003;61633;53.742;-2.990;2022-09-12T05:00:07;1;1;
73414;PMS5003;61633;53.742;-2.990;2022-09-12T05:04:24;1;1;
73414;PMS5003;61633;53.742;-2.990;2022-09-12T05:07:06;1;1;
73414;PMS5003;61633;53.742;-2.990;2022-09-12T05:09:35;2;1;
73414;PMS5003;61633;53.742;-2.990;2022-09-12T05:11:52;1;1;
73414;PMS5003;61633;53.742;-2.990;2022-09-12T05:19:26;2;1;
73414;PMS5003;61633;53.742;-2.990;2022-09-12T05:21:49;1;1;
73414;PMS5003;61633;53.742;-2.990;2022-09-12T05:25:17;2;2;
73414;PMS5003;61633;53.742;-2.990;2022-09-12T05:32:38;1;1;
73414;PMS5003;61633;53.742;-2.990;2022-09-12T05:47:08;1;1;
73414;PMS5003;61633;53.742;-2.990;2022-09-12T05:57:29;0;0;
73414;PMS5003;61633;53.742;-2.990;2022-09-12T06:07:05;1;1;
73414;PMS5003;61633;53.742;-2.990;2022-09-12T06:17:19;0;0;
73414;PMS5003;61633;53.742;-2.990;2022-09-12T06:26:11;0;0;
73414;PMS5003;61633;53.742;-2.990;2022-09-12T06:28:50;0;0;
73414;PMS5003;61633;53.742;-2.990;2022-09-12T06:37:35;1;1;
73414;PMS5003;61633;53.742;-2.990;2022-09-12T06:51:46;1;1;
73414;PMS5003;61633;53.742;-2.990;2022-09-12T06:53:49;0;0;
73414;PMS5003;61633;53.742;-2.990;2022-09-12T06:56:21;1;1;
73414;PMS5003;61633;53.742;-2.990;2022-09-12T07:17:18;7;3;
73414;PMS5003;61633;53.742;-2.990;2022-09-12T07:31:40;5;2;
73414;PMS5003;61633;53.742;-2.990;2022-09-12T07:47:32;4;3;
73414;PMS5003;61633;53.742;-2.990;2022-09-12T07:53:53;3;2;
73414;PMS5003;61633;53.742;-2.990;2022-09-12T07:56:32;5;4;
73414;PMS5003;61633;53.742;-2.990;2022-09-12T08:29:08;3;2;
73414;PMS5003;61633;53.742;-2.990;2022-09-12T08:31:28;3;2;
73414;PMS5003;61633;53.742;-2.990;2022-09-12T08:33:23;5;3;
73414;PMS5003;61633;53.742;-2.990;2022-09-12T08:38:41;3;3;
73414;PMS5003;61633;53.742;-2.990;2022-09-12T08:40:53;2;0;
73414;PMS5003;61633;53.742;-2.990;2022-09-12T08:53:28;4;3;
73414;PMS5003;61633;53.742;-2.990;2022-09-12T08:56:35;7;3;
73414;PMS5003;61633;53.742;-2.990;2022-09-12T08:58:46;7;4;
73414;PMS5003;61633;53.742;-2.990;2022-09-12T09:01:37;3;3;
73414;PMS5003;61633;53.742;-2.990;2022-09-12T09:06:18;2;2;
73414;PMS5003;61633;53.742;-2.990;2022-09-12T09:11:36;4;3;
73414;PMS5003;61633;53.742;-2.990;2022-09-12T09:14:51;4;3;
73414;PMS5003;61633;53.742;-2.990;2022-09-12T09:16:45;3;3;
73414;PMS5003;61633;53.742;-2.990;2022-09-12T09:20:09;7;6;
73414;PMS5003;61633;53.742;-2.990;2022-09-12T09:22:15;7;6;
73414;PMS5003;61633;53.742;-2.990;2022-09-12T09:25:03;7;6;
73414;PMS5003;61633;53.742;-2.990;2022-09-12T09:27:32;6;5;
73414;PMS5003;61633;53.742;-2.990;2022-09-12T09:29:56;4;4;
73414;PMS5003;61633;53.742;-2.990;2022-09-12T09:32:31;3;3;
73414;PMS5003;61633;53.742;-2.990;2022-09-12T09:35:29;2;2;
73414;PMS5003;61633;53.742;-2.990;2022-09-12T09:37:34;2;2;
73414;PMS5003;61633;53.742;-2.990;2022-09-12T09:40:38;3;3;
73414;PMS5003;61633;53.742;-2.990;2022-09-12T09:43:05;5;5;
73414;PMS5003;61633;53.742;-2.990;2022-09-12T09:45:53;6;6;
73414;PMS5003;61633;53.742;-2.990;2022-09-12T09:48:37;5;5;
73414;PMS5003;61633;53.742;-2.990;2022-09-12T09:51:26;4;4;
73414;PMS5003;61633;53.742;-2.990;2022-09-12T10:01:10;4;4;
73414;PMS5003;61633;53.742;-2.990;2022-09-12T10:08:22;3;3;
73414;PMS5003;61633;53.742;-2.990;2022-09-12T10:13:27;5;5;
73414;PMS5003;61633;53.742;-2.990;2022-09-12T10:16:24;4;4;
73414;PMS5003;61633;53.742;-2.990;2022-09-12T10:21:01;4;3;
73414;PMS5003;61633;53.742;-2.990;2022-09-12T10:24:19;2;2;
73414;PMS5003;61633;53.742;-2.990;2022-09-12T10:28:42;4;3;
73414;PMS5003;61633;53.742;-2.990;2022-09-12T10:31:05;4;3;
73414;PMS5003;61633;53.742;-2.990;2022-09-12T10:33:39;7;4;
73414;PMS5003;61633;53.742;-2.990;2022-09-12T10:36:26;6;4;
73414;PMS5003;61633;53.742;-2.990;2022-09-12T10:38:56;2;2;
73414;PMS5003;61633;53.742;-2.990;2022-09-12T10:41:41;5;4;
73414;PMS5003;61633;53.742;-2.990;2022-09-12T10:43:51;6;5;
73414;PMS5003;61633;53.742;-2.990;2022-09-12T10:46:49;5;4;
73414;PMS5003;61633;53.742;-2.990;2022-09-12T10:48:46;6;4;
73414;PMS5003;61633;53.742;-2.990;2022-09-12T10:51:24;4;4;
73414;PMS5003;61633;53.742;-2.990;2022-09-12T10:53:48;4;4;
73414;PMS5003;61633;53.742;-2.990;2022-09-12T10:56:27;3;3;
73414;PMS5003;61633;53.742;-2.990;2022-09-12T11:01:40;9;7;
73414;PMS5003;61633;53.742;-2.990;2022-09-12T11:04:39;5;4;
73414;PMS5003;61633;53.742;-2.990;2022-09-12T11:06:54;4;3;
73414;PMS5003;61633;53.742;-2.990;2022-09-12T11:09:42;3;3;
73414;PMS5003;61633;53.742;-2.990;2022-09-12T11:12:17;2;2;
73414;PMS5003;61633;53.742;-2.990;2022-09-12T11:14:33;2;2;
73414;PMS5003;61633;53.742;-2.990;2022-09-12T11:16:52;3;3;
73414;PMS5003;61633;53.742;-2.990;2022-09-12T11:19:23;2;2;
73414;PMS5003;61633;53.742;-2.990;2022-09-12T11:22:10;3;3;
73414;PMS5003;61633;53.742;-2.990;2022-09-12T11:29:18;3;3;
73414;PMS5003;61633;53.742;-2.990;2022-09-12T11:34:24;6;3;
73414;PMS5003;61633;53.742;-2.990;2022-09-12T11:38:51;3;3;
73414;PMS5003;61633;53.742;-2.990;2022-09-12T11:41:22;4;4;
73414;PMS5003;61633;53.742;-2.990;2022-09-12T11:43:52;4;4;
73414;PMS5003;61633;53.742;-2.990;2022-09-12T11:46:12;4;3;
73414;PMS5003;61633;53.742;-2.990;2022-09-12T11:48:43;5;5;
73414;PMS5003;61633;53.742;-2.990;2022-09-12T11:51:13;5;3;
73414;PMS5003;61633;53.742;-2.990;2022-09-12T11:56:20;6;6;
73414;PMS5003;61633;53.742;-2.990;2022-09-12T12:00:56;5;4;
73414;PMS5003;61633;53.742;-2.990;2022-09-12T12:06:01;4;4;
73414;PMS5003;61633;53.742;-2.990;2022-09-12T12:10:42;3;3;
73414;PMS5003;61633;53.742;-2.990;2022-09-12T12:15:45;3;3;
73414;PMS5003;61633;53.742;-2.990;2022-09-12T12:18:07;3;3;
73414;PMS5003;61633;53.742;-2.990;2022-09-12T12:20:45;1;1;
73414;PMS5003;61633;53.742;-2.990;2022-09-12T12:23:39;4;4;
73414;PMS5003;61633;53.742;-2.990;2022-09-12T12:27:51;3;3;
73414;PMS5003;61633;53.742;-2.990;2022-09-12T12:32:53;5;3;
73414;PMS5003;61633;53.742;-2.990;2022-09-12T12:37:54;5;3;
73414;PMS5003;61633;53.742;-2.990;2022-09-12T12:40:24;6;3;
73414;PMS5003;61633;53.742;-2.990;2022-09-12T12:45:00;4;3;
73414;PMS5003;61633;53.742;-2.990;2022-09-12T12:47:32;1;1;
73414;PMS5003;61633;53.742;-2.990;2022-09-12T12:49:54;4;4;
73414;PMS5003;61633;53.742;-2.990;2022-09-12T12:52:23;5;5;
73414;PMS5003;61633;53.742;-2.990;2022-09-12T12:54:52;2;2;
73414;PMS5003;61633;53.742;-2.990;2022-09-12T12:59:35;3;3;
73414;PMS5003;61633;53.742;-2.990;2022-09-12T13:04:32;3;2;
73414;PMS5003;61633;53.742;-2.990;2022-09-12T13:06:55;3;3;
73414;PMS5003;61633;53.742;-2.990;2022-09-12T13:09:23;4;4;
73414;PMS5003;61633;53.742;-2.990;2022-09-12T13:11:45;3;3;
73414;PMS5003;61633;53.742;-2.990;2022-09-12T13:16:52;4;2;
73414;PMS5003;61633;53.742;-2.990;2022-09-12T13:21:34;4;3;
73414;PMS5003;61633;53.742;-2.990;2022-09-12T13:24:11;4;4;
73414;PMS5003;61633;53.742;-2.990;2022-09-12T13:26:39;2;2;
73414;PMS5003;61633;53.742;-2.990;2022-09-12T13:31:23;3;3;
73414;PMS5003;61633;53.742;-2.990;2022-09-12T13:33:48;3;3;
73414;PMS5003;61633;53.742;-2.990;2022-09-12T13:36:13;3;3;
73414;PMS5003;61633;53.742;-2.990;2022-09-12T13:39:06;2;2;
73414;PMS5003;61633;53.742;-2.990;2022-09-12T13:41:36;4;4;
73414;PMS5003;61633;53.742;-2.990;2022-09-12T13:43:38;3;2;
73414;PMS5003;61633;53.742;-2.990;2022-09-12T13:46:16;3;3;
73414;PMS5003;61633;53.742;-2.990;2022-09-12T13:48:21;5;4;
73414;PMS5003;61633;53.742;-2.990;2022-09-12T13:50:54;2;2;
73414;PMS5003;61633;53.742;-2.990;2022-09-12T13:53:16;4;4;
73414;PMS5003;61633;53.742;-2.990;2022-09-12T13:55:40;1;1;
73414;PMS5003;61633;53.742;-2.990;2022-09-12T13:58:14;4;3;
73414;PMS5003;61633;53.742;-2.990;2022-09-12T14:00:39;2;2;
73414;PMS5003;61633;53.742;-2.990;2022-09-12T14:03:08;7;4;
73414;PMS5003;61633;53.742;-2.990;2022-09-12T14:05:36;4;3;
73414;PMS5003;61633;53.742;-2.990;2022-09-12T14:07:52;5;5;
73414;PMS5003;61633;53.742;-2.990;2022-09-12T14:10:21;5;2;
73414;PMS5003;61633;53.742;-2.990;2022-09-12T14:12:38;4;3;
73414;PMS5003;61633;53.742;-2.990;2022-09-12T14:15:13;4;4;
73414;PMS5003;61633;53.742;-2.990;2022-09-12T14:17:34;4;3;
73414;PMS5003;61633;53.742;-2.990;2022-09-12T14:19:56;3;3;
73414;PMS5003;61633;53.742;-2.990;2022-09-12T14:22:22;2;2;
73414;PMS5003;61633;53.742;-2.990;2022-09-12T14:24:48;5;4;
73414;PMS5003;61633;53.742;-2.990;2022-09-12T14:27:24;2;2;
73414;PMS5003;61633;53.742;-2.990;2022-09-12T14:29:41;6;3;
73414;PMS5003;61633;53.742;-2.990;2022-09-12T14:34:42;3;3;
73414;PMS5003;61633;53.742;-2.990;2022-09-12T14:37:01;2;2;
73414;PMS5003;61633;53.742;-2.990;2022-09-12T14:39:29;4;4;
73414;PMS5003;61633;53.742;-2.990;2022-09-12T14:44:21;4;4;
73414;PMS5003;61633;53.742;-2.990;2022-09-12T14:46:45;4;4;
73414;PMS5003;61633;53.742;-2.990;2022-09-12T14:49:14;7;5;
73414;PMS5003;61633;53.742;-2.990;2022-09-12T14:51:36;4;4;
73414;PMS5003;61633;53.742;-2.990;2022-09-12T14:54:00;4;4;
73414;PMS5003;61633;53.742;-2.990;2022-09-12T14:58:52;7;6;
73414;PMS5003;61633;53.742;-2.990;2022-09-12T15:01:25;5;5;
73414;PMS5003;61633;53.742;-2.990;2022-09-12T15:03:49;4;4;
73414;PMS5003;61633;53.742;-2.990;2022-09-12T15:08:34;4;4;
73414;PMS5003;61633;53.742;-2.990;2022-09-12T15:11:00;6;6;
73414;PMS5003;61633;53.742;-2.990;2022-09-12T15:13:25;5;4;
73414;PMS5003;61633;53.742;-2.990;2022-09-12T15:15:51;3;3;
73414;PMS5003;61633;53.742;-2.990;2022-09-12T15:18:15;3;3;
73414;PMS5003;61633;53.742;-2.990;2022-09-12T15:20:46;5;5;
73414;PMS5003;61633;53.742;-2.990;2022-09-12T15:23:11;3;3;
73414;PMS5003;61633;53.742;-2.990;2022-09-12T15:25:32;3;3;
73414;PMS5003;61633;53.742;-2.990;2022-09-12T15:27:57;3;3;
73414;PMS5003;61633;53.742;-2.990;2022-09-12T15:30:26;5;3;
73414;PMS5003;61633;53.742;-2.990;2022-09-12T15:32:48;4;2;
73414;PMS5003;61633;53.742;-2.990;2022-09-12T15:35:31;4;4;
73414;PMS5003;61633;53.742;-2.990;2022-09-12T15:37:37;6;5;
73414;PMS5003;61633;53.742;-2.990;2022-09-12T15:40:06;3;3;
73414;PMS5003;61633;53.742;-2.990;2022-09-12T15:42:30;4;4;
73414;PMS5003;61633;53.742;-2.990;2022-09-12T15:45:01;5;5;
73414;PMS5003;61633;53.742;-2.990;2022-09-12T15:47:19;8;7;
73414;PMS5003;61633;53.742;-2.990;2022-09-12T15:49:44;7;5;
73414;PMS5003;61633;53.742;-2.990;2022-09-12T15:52:14;4;3;
73414;PMS5003;61633;53.742;-2.990;2022-09-12T15:54:37;3;3;
73414;PMS5003;61633;53.742;-2.990;2022-09-12T15:57:03;3;3;
73414;PMS5003;61633;53.742;-2.990;2022-09-12T15:59:27;2;2;
73414;PMS5003;61633;53.742;-2.990;2022-09-12T16:01:53;3;3;
73414;PMS5003;61633;53.742;-2.990;2022-09-12T16:04:22;2;2;
73414;PMS5003;61633;53.742;-2.990;2022-09-12T16:06:42;1;1;
73414;PMS5003;61633;53.742;-2.990;2022-09-12T16:09:05;1;1;
73414;PMS5003;61633;53.742;-2.990;2022-09-12T16:11:31;1;1;
73414;PMS5003;61633;53.742;-2.990;2022-09-12T16:13:58;1;1;
73414;PMS5003;61633;53.742;-2.990;2022-09-12T16:16:23;1;1;
73414;PMS5003;61633;53.742;-2.990;2022-09-12T16:18:48;1;1;
73414;PMS5003;61633;53.742;-2.990;2022-09-12T16:21:18;1;1;
73414;PMS5003;61633;53.742;-2.990;2022-09-12T16:23:41;3;3;
73414;PMS5003;61633;53.742;-2.990;2022-09-12T16:26:07;1;1;
73414;PMS5003;61633;53.742;-2.990;2022-09-12T16:28:32;1;1;
73414;PMS5003;61633;53.742;-2.990;2022-09-12T16:30:57;1;1;
73414;PMS5003;61633;53.742;-2.990;2022-09-12T16:33:22;1;1;
73414;PMS5003;61633;53.742;-2.990;2022-09-12T16:35:49;2;2;
73414;PMS5003;61633;53.742;-2.990;2022-09-12T16:38:15;1;1;
73414;PMS5003;61633;53.742;-2.990;2022-09-12T16:40:38;2;2;
73414;PMS5003;61633;53.742;-2.990;2022-09-12T16:43:05;1;1;
73414;PMS5003;61633;53.742;-2.990;2022-09-12T16:45:33;2;2;
73414;PMS5003;61633;53.742;-2.990;2022-09-12T16:47:55;1;1;
73414;PMS5003;61633;53.742;-2.990;2022-09-12T16:50:22;1;1;
73414;PMS5003;61633;53.742;-2.990;2022-09-12T16:52:49;1;1;
73414;PMS5003;61633;53.742;-2.990;2022-09-12T16:55:14;1;1;
73414;PMS5003;61633;53.742;-2.990;2022-09-12T16:57:37;2;2;
73414;PMS5003;61633;53.742;-2.990;2022-09-12T17:00:07;0;0;
73414;PMS5003;61633;53.742;-2.990;2022-09-12T17:02:36;1;1;
73414;PMS5003;61633;53.742;-2.990;2022-09-12T17:05:06;1;1;
73414;PMS5003;61633;53.742;-2.990;2022-09-12T17:07:26;6;5;
73414;PMS5003;61633;53.742;-2.990;2022-09-12T17:09:51;4;4;
73414;PMS5003;61633;53.742;-2.990;2022-09-12T17:12:18;1;1;
73414;PMS5003;61633;53.742;-2.990;2022-09-12T17:14:43;3;3;
73414;PMS5003;61633;53.742;-2.990;2022-09-12T17:17:17;7;5;
73414;PMS5003;61633;53.742;-2.990;2022-09-12T17:19:33;2;2;
73414;PMS5003;61633;53.742;-2.990;2022-09-12T17:21:59;3;3;
73414;PMS5003;61633;53.742;-2.990;2022-09-12T17:24:27;4;4;
73414;PMS5003;61633;53.742;-2.990;2022-09-12T17:26:53;6;6;
73414;PMS5003;61633;53.742;-2.990;2022-09-12T17:29:19;5;5;
73414;PMS5003;61633;53.742;-2.990;2022-09-12T17:31:44;5;5;
73414;PMS5003;61633;53.742;-2.990;2022-09-12T17:34:10;5;5;
73414;PMS5003;61633;53.742;-2.990;2022-09-12T17:36:36;5;5;
73414;PMS5003;61633;53.742;-2.990;2022-09-12T17:39:01;6;5;
73414;PMS5003;61633;53.742;-2.990;2022-09-12T17:41:27;5;5;
73414;PMS5003;61633;53.742;-2.990;2022-09-12T17:43:50;2;2;
73414;PMS5003;61633;53.742;-2.990;2022-09-12T17:46:15;4;4;
73414;PMS5003;61633;53.742;-2.990;2022-09-12T17:48:42;1;1;
73414;PMS5003;61633;53.742;-2.990;2022-09-12T17:51:09;2;2;
73414;PMS5003;61633;53.742;-2.990;2022-09-12T17:53:34;2;2;
73414;PMS5003;61633;53.742;-2.990;2022-09-12T17:56:01;4;4;
73414;PMS5003;61633;53.742;-2.990;2022-09-12T17:58:23;2;2;
73414;PMS5003;61633;53.742;-2.990;2022-09-12T18:00:50;1;0;
73414;PMS5003;61633;53.742;-2.990;2022-09-12T18:03:15;2;2;
73414;PMS5003;61633;53.742;-2.990;2022-09-12T18:05:46;2;2;
73414;PMS5003;61633;53.742;-2.990;2022-09-12T18:08:08;2;1;
73414;PMS5003;61633;53.742;-2.990;2022-09-12T18:10:31;1;1;
73414;PMS5003;61633;53.742;-2.990;2022-09-12T18:12:57;0;0;
73414;PMS5003;61633;53.742;-2.990;2022-09-12T18:15:27;1;1;
73414;PMS5003;61633;53.742;-2.990;2022-09-12T18:17:50;2;2;
73414;PMS5003;61633;53.742;-2.990;2022-09-12T18:20:17;2;2;
73414;PMS5003;61633;53.742;-2.990;2022-09-12T18:22:41;4;3;
73414;PMS5003;61633;53.742;-2.990;2022-09-12T18:25:10;4;1;
73414;PMS5003;61633;53.742;-2.990;2022-09-12T18:27:32;4;4;
73414;PMS5003;61633;53.742;-2.990;2022-09-12T18:29:59;5;3;
73414;PMS5003;61633;53.742;-2.990;2022-09-12T18:32:22;5;2;
73414;PMS5003;61633;53.742;-2.990;2022-09-12T18:34:47;2;2;
73414;PMS5003;61633;53.742;-2.990;2022-09-12T18:37:14;2;2;
73414;PMS5003;61633;53.742;-2.990;2022-09-12T18:39:37;2;2;
73414;PMS5003;61633;53.742;-2.990;2022-09-12T18:42:05;2;2;
73414;PMS5003;61633;53.742;-2.990;2022-09-12T18:44:32;3;1;
73414;PMS5003;61633;53.742;-2.990;2022-09-12T18:46:55;3;3;
73414;PMS5003;61633;53.742;-2.990;2022-09-12T18:49:20;2;2;
73414;PMS5003;61633;53.742;-2.990;2022-09-12T18:51:45;2;2;
73414;PMS5003;61633;53.742;-2.990;2022-09-12T18:54:19;2;2;
73414;PMS5003;61633;53.742;-2.990;2022-09-12T18:56:38;3;2;
73414;PMS5003;61633;53.742;-2.990;2022-09-12T18:59:04;21;18;
73414;PMS5003;61633;53.742;-2.990;2022-09-12T19:01:28;7;7;
73414;PMS5003;61633;53.742;-2.990;2022-09-12T19:03:54;6;6;
73414;PMS5003;61633;53.742;-2.990;2022-09-12T19:06:22;8;8;
73414;PMS5003;61633;53.742;-2.990;2022-09-12T19:08:46;4;3;
73414;PMS5003;61633;53.742;-2.990;2022-09-12T19:11:10;2;2;
73414;PMS5003;61633;53.742;-2.990;2022-09-12T19:13:35;1;1;
73414;PMS5003;61633;53.742;-2.990;2022-09-12T19:15:59;3;3;
73414;PMS5003;61633;53.742;-2.990;2022-09-12T19:18:24;4;2;
73414;PMS5003;61633;53.742;-2.990;2022-09-12T19:20:52;2;2;
73414;PMS5003;61633;53.742;-2.990;2022-09-12T19:23:17;1;1;
73414;PMS5003;61633;53.742;-2.990;2022-09-12T19:25:42;2;2;
73414;PMS5003;61633;53.742;-2.990;2022-09-12T19:28:09;5;5;
73414;PMS5003;61633;53.742;-2.990;2022-09-12T19:30:33;2;2;
73414;PMS5003;61633;53.742;-2.990;2022-09-12T19:32:58;2;2;
73414;PMS5003;61633;53.742;-2.990;2022-09-12T19:35:37;5;2;
73414;PMS5003;61633;53.742;-2.990;2022-09-12T19:37:54;2;2;
73414;PMS5003;61633;53.742;-2.990;2022-09-12T19:40:23;4;4;
73414;PMS5003;61633;53.742;-2.990;2022-09-12T19:42:48;4;4;
73414;PMS5003;61633;53.742;-2.990;2022-09-12T19:45:17;2;2;
73414;PMS5003;61633;53.742;-2.990;2022-09-12T19:47:38;3;3;
73414;PMS5003;61633;53.742;-2.990;2022-09-12T19:50:06;2;2;
73414;PMS5003;61633;53.742;-2.990;2022-09-12T19:52:29;2;2;
73414;PMS5003;61633;53.742;-2.990;2022-09-12T19:54:55;2;2;
73414;PMS5003;61633;53.742;-2.990;2022-09-12T19:57:21;2;2;
73414;PMS5003;61633;53.742;-2.990;2022-09-12T19:59:47;2;2;
73414;PMS5003;61633;53.742;-2.990;2022-09-12T20:02:14;2;2;
73414;PMS5003;61633;53.742;-2.990;2022-09-12T20:04:37;2;2;
73414;PMS5003;61633;53.742;-2.990;2022-09-12T20:07:06;2;2;
73414;PMS5003;61633;53.742;-2.990;2022-09-12T20:09:29;5;5;
73414;PMS5003;61633;53.742;-2.990;2022-09-12T20:11:53;2;2;
73414;PMS5003;61633;53.742;-2.990;2022-09-12T20:14:23;3;3;
73414;PMS5003;61633;53.742;-2.990;2022-09-12T20:16:45;2;2;
73414;PMS5003;61633;53.742;-2.990;2022-09-12T20:19:12;1;1;
73414;PMS5003;61633;53.742;-2.990;2022-09-12T20:21:36;1;1;
73414;PMS5003;61633;53.742;-2.990;2022-09-12T20:24:04;3;3;
73414;PMS5003;61633;53.742;-2.990;2022-09-12T20:26:30;3;3;
73414;PMS5003;61633;53.742;-2.990;2022-09-12T20:28:53;3;3;
73414;PMS5003;61633;53.742;-2.990;2022-09-12T20:31:21;3;3;
73414;PMS5003;61633;53.742;-2.990;2022-09-12T20:34:11;2;1;
73414;PMS5003;61633;53.742;-2.990;2022-09-12T20:36:34;2;1;
73414;PMS5003;61633;53.742;-2.990;2022-09-12T20:39:04;3;3;
73414;PMS5003;61633;53.742;-2.990;2022-09-12T20:41:12;8;7;
73414;PMS5003;61633;53.742;-2.990;2022-09-12T20:43:34;2;2;
73414;PMS5003;61633;53.742;-2.990;2022-09-12T20:45:59;3;2;
73414;PMS5003;61633;53.742;-2.990;2022-09-12T20:48:24;2;2;
73414;PMS5003;61633;53.742;-2.990;2022-09-12T20:50:51;4;2;
73414;PMS5003;61633;53.742;-2.990;2022-09-12T20:53:17;5;3;
73414;PMS5003;61633;53.742;-2.990;2022-09-12T20:58:08;3;3;
73414;PMS5003;61633;53.742;-2.990;2022-09-12T21:00:33;3;3;
73414;PMS5003;61633;53.742;-2.990;2022-09-12T21:03:03;2;2;
73414;PMS5003;61633;53.742;-2.990;2022-09-12T21:05:35;2;2;
73414;PMS5003;61633;53.742;-2.990;2022-09-12T21:07:51;1;1;
73414;PMS5003;61633;53.742;-2.990;2022-09-12T21:10:17;2;2;
73414;PMS5003;61633;53.742;-2.990;2022-09-12T21:12:43;4;3;
73414;PMS5003;61633;53.742;-2.990;2022-09-12T21:15:10;3;3;
73414;PMS5003;61633;53.742;-2.990;2022-09-12T21:17:36;4;2;
73414;PMS5003;61633;53.742;-2.990;2022-09-12T21:19:58;3;3;
73414;PMS5003;61633;53.742;-2.990;2022-09-12T21:22:23;3;2;
73414;PMS5003;61633;53.742;-2.990;2022-09-12T21:24:47;2;2;
73414;PMS5003;61633;53.742;-2.990;2022-09-12T21:27:15;3;3;
73414;PMS5003;61633;53.742;-2.990;2022-09-12T21:29:40;3;3;
73414;PMS5003;61633;53.742;-2.990;2022-09-12T21:32:10;1;1;
73414;PMS5003;61633;53.742;-2.990;2022-09-12T21:34:32;2;2;
73414;PMS5003;61633;53.742;-2.990;2022-09-12T21:36:58;5;4;
73414;PMS5003;61633;53.742;-2.990;2022-09-12T21:39:25;3;1;
73414;PMS5003;61633;53.742;-2.990;2022-09-12T21:41:50;5;3;
73414;PMS5003;61633;53.742;-2.990;2022-09-12T21:44:16;3;3;
73414;PMS5003;61633;53.742;-2.990;2022-09-12T21:46:40;3;3;
73414;PMS5003;61633;53.742;-2.990;2022-09-12T21:49:06;2;2;
73414;PMS5003;61633;53.742;-2.990;2022-09-12T21:51:31;3;3;
73414;PMS5003;61633;53.742;-2.990;2022-09-12T21:53:56;3;3;
73414;PMS5003;61633;53.742;-2.990;2022-09-12T21:56:27;8;6;
73414;PMS5003;61633;53.742;-2.990;2022-09-12T21:58:48;4;3;
73414;PMS5003;61633;53.742;-2.990;2022-09-12T22:01:14;1;1;
73414;PMS5003;61633;53.742;-2.990;2022-09-12T22:03:41;6;6;
73414;PMS5003;61633;53.742;-2.990;2022-09-12T22:06:06;2;2;
73414;PMS5003;61633;53.742;-2.990;2022-09-12T22:08:29;3;2;
73414;PMS5003;61633;53.742;-2.990;2022-09-12T22:10:57;3;2;
73414;PMS5003;61633;53.742;-2.990;2022-09-12T22:13:19;5;0;
73414;PMS5003;61633;53.742;-2.990;2022-09-12T22:15:49;2;1;
73414;PMS5003;61633;53.742;-2.990;2022-09-12T22:18:15;3;3;